This is the latest recevied weather packets stored in our database for station/object WX5RP. If no packets are shown the sender has not sent any weather packets the latest 10 day(s).
| Time | Temp. | Humidity | Pressure | Rain* | Wind** | Luminosity | Snow |
|---|---|---|---|---|---|---|---|
| 1777211117 | -5° C | 70% | 1007.6 hPa | 0 mm | - | 33 W/m² | - |
| 1777210516 | -5° C | 69% | 1007.8 hPa | 0 mm | - | 29 W/m² | - |
| 1777209917 | -5° C | 68% | 1007.8 hPa | 0 mm | - | 18 W/m² | - |
| 1777209316 | -5° C | 67% | 1007.8 hPa | 0 mm | - | 11 W/m² | - |
| 1777208716 | -4.44° C | 67% | 1007.2 hPa | 0 mm | - | 3 W/m² | - |
| 1777208116 | -3.89° C | 67% | 1007 hPa | 0 mm | - | 0 W/m² | - |
| 1777207516 | -3.33° C | 66% | 1007 hPa | 0 mm | - | 0 W/m² | - |
| 1777206916 | -3.33° C | 67% | 1006.7 hPa | 0 mm | - | 0 W/m² | - |
| 1777206316 | -2.78° C | 66% | 1007 hPa | 0 mm | - | 0 W/m² | - |
| 1777205716 | -3.33° C | 66% | 1007.3 hPa | 0 mm | - | 0 W/m² | - |
| 1777205116 | -3.89° C | 68% | 1007 hPa | 0 mm | - | 0 W/m² | - |
| 1777204516 | -4.44° C | 68% | 1007.1 hPa | 0 mm | - | 0 W/m² | - |
| 1777203916 | -3.89° C | 66% | 1007.1 hPa | 0 mm | - | 0 W/m² | - |
| 1777203315 | -3.33° C | 65% | 1006.9 hPa | 0 mm | - | 0 W/m² | - |
| 1777202716 | -3.33° C | 62% | 1006.6 hPa | 0 mm | - | 0 W/m² | - |
| 1777202116 | -2.22° C | 60% | 1006.9 hPa | 0 mm | - | 0 W/m² | - |
| 1777201517 | -2.22° C | 60% | 1007.1 hPa | 0 mm | - | 0 W/m² | - |
| 1777200915 | -1.67° C | 60% | 1006.9 hPa | 0 mm | - | 0 W/m² | - |
| 1777200316 | -1.11° C | 58% | 1007.2 hPa | 0 mm | - | 0 W/m² | - |
| 1777199715 | -1.11° C | 55% | 1007.3 hPa | 0 mm | - | 0 W/m² | - |
| 1777199115 | -1.11° C | 56% | 1007 hPa | 0 mm | - | 0 W/m² | - |
| 1777198515 | -1.67° C | 59% | 1007 hPa | 0 mm | - | 0 W/m² | - |
| 1777197915 | -1.67° C | 61% | 1007.4 hPa | 0 mm | - | 0 W/m² | - |
| 1777197315 | -1.67° C | 61% | 1007.7 hPa | 0 mm | - | 0 W/m² | - |
| 1777196715 | -2.22° C | 64% | 1007.4 hPa | 0 mm | - | 0 W/m² | - |
* Rain latest hour (hover to see other rain measurements)
** Current wind speed in m/s (hover to see current wind gust speed)